Latest Weather Observations for Wattamolla

IDN60801

Issued at 3:04 am EDT Friday 29 January 2021 (issued every 10 minutes, with the page automatically refreshed every 10 minutes)

About weather observations | Map of weather stations | Latest weather observations for NSW | Other Formats
Station Details ID: 066208 Name: WATTAMOLLA AWS Lat: -34.14 Lon: 151.12 Height: 44.0 m
Data from the previous 72 hours. | See also: Recent months at Wattamolla
Date/Time
EDT
Temp
°C
App
Temp
°C
Dew
Point
°C
Rel
Hum
%
Delta-T
°C
Wind Press
QNH
hPa
Press
MSL
hPa
Rain since
9am
mm
Dir  Spd
km/h
Gust
km/h
Spd
kts
Gust
kts
29/03:00am - - - - - ENE 13 22 7 12 - - -
29/02:30am - - - - - E 13 26 7 14 - - -
29/02:00am - - - - - ESE 15 28 8 15 - - -
29/01:30am - - - - - E 22 35 12 19 - - -
29/01:00am - - - - - SSE 32 39 17 21 - - -
29/12:30am - - - - - SE 32 35 17 19 - - -
29/12:00am - - - - - SE 33 41 18 22 - - -
 
Date/Time
EDT
Temp
°C
App
Temp
°C
Dew
Point
°C
Rel
Hum
%
Delta-T
°C
Wind Press
QNH
hPa
Press
MSL
hPa
Rain since
9am
mm
Dir  Spd
km/h
Gust
km/h
Spd
kts
Gust
kts
28/11:30pm - - - - - SE 41 48 22 26 - - -
28/11:00pm - - - - - SE 41 48 22 26 - - -
28/10:30pm - - - - - SE 44 50 24 27 - - -
28/10:00pm - - - - - SSE 44 56 24 30 - - -
28/09:30pm - - - - - SE 48 56 26 30 - - -
28/09:00pm - - - - - SSE 44 54 24 29 - - -
28/08:30pm - - - - - SSE 48 56 26 30 - - -
28/08:00pm - - - - - SSE 48 56 26 30 - - -
28/07:48pm - - - - - SSE 35 54 19 29 - - -
28/07:30pm - - - - - SE 32 46 17 25 - - -
28/07:00pm - - - - - SSE 35 48 19 26 - - -
28/06:30pm - - - - - SSE 41 52 22 28 - - -
28/06:00pm - - - - - SSE 48 57 26 31 - - -
28/05:30pm - - - - - SSE 46 56 25 30 - - -
28/05:00pm - - - - - SSE 39 48 21 26 - - -
28/04:30pm - - - - - SSE 41 52 22 28 - - -
28/04:19pm - - - - - SSE 33 52 18 28 - - -
28/04:00pm - - - - - SSE 41 54 22 29 - - -
28/03:30pm - - - - - SSE 37 52 20 28 - - -
28/03:00pm - - - - - SSE 39 50 21 27 - - -
28/02:30pm - - - - - SSE 41 52 22 28 - - -
28/02:00pm - - - - - SSE 43 50 23 27 - - -
28/01:30pm - - - - - SSE 43 54 23 29 - - -
28/01:00pm - - - - - SSE 37 48 20 26 - - -
28/12:30pm - - - - - SSE 39 52 21 28 - - -
28/12:00pm - - - - - SSE 44 54 24 29 - - -
28/11:30am - - - - - SSE 46 59 25 32 - - -
28/11:00am - - - - - SSE 44 61 24 33 - - -
28/10:30am - - - - - SSE 48 59 26 32 - - -
28/10:00am - - - - - SSE 50 57 27 31 - - -
28/09:30am - - - - - SSE 46 56 25 30 - - -
28/09:00am - - - - - SSE 48 59 26 32 - - -
28/08:30am - - - - - SSE 48 59 26 32 - - -
28/08:00am - - - - - SSE 50 59 27 32 - - -
28/07:30am - - - - - SSE 52 59 28 32 - - -
28/07:00am - - - - - SSE 46 57 25 31 - - -
28/06:30am - - - - - SSE 41 54 22 29 - - -
28/06:00am - - - - - SSE 44 59 24 32 - - -
28/05:30am - - - - - SSE 41 50 22 27 - - -
28/05:00am - - - - - SSE 48 56 26 30 - - -
28/04:30am - - - - - SSE 46 56 25 30 - - -
28/04:00am - - - - - SSE 44 57 24 31 - - -
28/03:30am - - - - - SSE 43 56 23 30 - - -
28/03:00am - - - - - SSE 44 56 24 30 - - -
28/02:30am - - - - - SSE 39 48 21 26 - - -
28/02:00am - - - - - SSE 46 54 25 29 - - -
28/01:30am - - - - - SSE 43 56 23 30 - - -
28/01:16am - - - - - S 33 52 18 28 - - -
28/01:00am - - - - - SSE 39 44 21 24 - - -
28/12:30am - - - - - SSE 41 52 22 28 - - -
28/12:00am - - - - - SSE 43 50 23 27 - - -
 
Date/Time
EDT
Temp
°C
App
Temp
°C
Dew
Point
°C
Rel
Hum
%
Delta-T
°C
Wind Press
QNH
hPa
Press
MSL
hPa
Rain since
9am
mm
Dir  Spd
km/h
Gust
km/h
Spd
kts
Gust
kts
27/11:30pm - - - - - SSE 46 57 25 31 - - -
27/11:00pm - - - - - SSE 48 59 26 32 - - -
27/10:30pm - - - - - SSE 46 61 25 33 - - -
27/10:00pm - - - - - SSE 37 50 20 27 - - -
27/09:30pm - - - - - SSE 46 57 25 31 - - -
27/09:00pm - - - - - SSE 54 67 29 36 - - -
27/08:30pm - - - - - SSE 44 54 24 29 - - -
27/08:00pm - - - - - SSE 46 56 25 30 - - -
27/07:30pm - - - - - SSE 43 57 23 31 - - -
27/07:00pm - - - - - S 43 61 23 33 - - -
27/06:30pm - - - - - S 52 57 28 31 - - -
27/06:08pm - - - - - S 41 59 22 32 - - -
27/06:00pm - - - - - S 52 61 28 33 - - -
27/05:30pm - - - - - S 54 67 29 36 - - -
27/05:05pm - - - - - S 48 67 26 36 - - -
27/05:00pm - - - - - S 52 61 28 33 - - -
27/04:30pm - - - - - S 56 65 30 35 - - -
27/04:00pm - - - - - S 59 70 32 38 - - -
27/03:30pm - - - - - S 61 69 33 37 - - -
27/03:00pm - - - - - S 59 72 32 39 - - -
27/02:30pm - - - - - SSE 59 74 32 40 - - -
27/02:00pm - - - - - S 59 72 32 39 - - -
27/01:30pm - - - - - SSE 54 63 29 34 - - -
27/01:00pm - - - - - SSE 57 67 31 36 - - -
27/12:30pm - - - - - SSE 56 69 30 37 - - -
27/12:00pm - - - - - SSE 56 70 30 38 - - -
27/11:30am - - - - - SSE 57 69 31 37 - - -
27/11:00am - - - - - SSE 50 65 27 35 - - -
27/10:30am - - - - - SSE 50 57 27 31 - - -
27/10:00am - - - - - SSE 52 59 28 32 - - -
27/09:30am - - - - - SSE 50 63 27 34 - - -
27/09:13am - - - - - SSE 50 70 27 38 - - -
27/09:00am - - - - - SSE 52 59 28 32 - - -
27/08:34am - - - - - SSE 48 69 26 37 - - -
27/08:30am - - - - - SSE 48 59 26 32 - - -
27/08:00am - - - - - S 56 70 30 38 - - -
27/07:54am - - - - - S 52 70 28 38 - - -
27/07:30am - - - - - S 52 57 28 31 - - -
27/07:00am - - - - - S 54 59 29 32 - - -
27/06:30am - - - - - S 56 63 30 34 - - -
27/06:00am - - - - - S 57 72 31 39 - - -
27/05:30am - - - - - S 61 74 33 40 - - -
27/05:00am - - - - - S 63 72 34 39 - - -
27/04:30am - - - - - S 61 69 33 37 - - -
27/04:00am - - - - - S 61 70 33 38 - - -
27/03:30am - - - - - S 57 65 31 35 - - -
27/03:00am - - - - - S 52 59 28 32 - - -
27/02:30am - - - - - S 46 54 25 29 - - -
27/02:00am - - - - - S 44 52 24 28 - - -
27/01:30am - - - - - S 46 50 25 27 - - -
27/01:00am - - - - - S 32 41 17 22 - - -
27/12:30am - - - - - SSE 30 37 16 20 - - -
27/12:00am - - - - - S 32 39 17 21 - - -
 
Date/Time
EDT
Temp
°C
App
Temp
°C
Dew
Point
°C
Rel
Hum
%
Delta-T
°C
Wind Press
QNH
hPa
Press
MSL
hPa
Rain since
9am
mm
Dir  Spd
km/h
Gust
km/h
Spd
kts
Gust
kts
26/11:30pm - - - - - S 22 35 12 19 - - -
26/11:01pm - - - - - S 32 50 17 27 - - -
26/11:00pm - - - - - SSE 33 50 18 27 - - -
26/10:30pm - - - - - S 39 46 21 25 - - -
26/10:00pm - - - - - S 43 50 23 27 - - -
26/09:30pm - - - - - S 32 52 17 28 - - -
26/09:15pm - - - - - SSW 28 52 15 28 - - -
26/09:00pm - - - - - S 17 26 9 14 - - -
26/08:30pm - - - - - WNW 9 11 5 6 - - -
26/08:00pm - - - - - N 17 28 9 15 - - -
26/07:30pm - - - - - N 28 35 15 19 - - -
26/07:00pm - - - - - NNE 24 33 13 18 - - -
26/06:30pm - - - - - N 26 39 14 21 - - -
26/06:00pm - - - - - NNE 26 35 14 19 - - -
26/05:30pm - - - - - NNE 24 37 13 20 - - -
26/05:00pm - - - - - NNE 22 37 12 20 - - -
26/04:30pm - - - - - NNE 20 28 11 15 - - -
26/04:00pm - - - - - NE 22 39 12 21 - - -
26/03:30pm - - - - - NNE 20 33 11 18 - - -
26/03:00pm - - - - - NE 20 30 11 16 - - -
26/02:30pm - - - - - NE 22 30 12 16 - - -
26/02:00pm - - - - - NE 20 30 11 16 - - -
26/01:30pm - - - - - NE 13 26 7 14 - - -
26/01:00pm - - - - - NNW 17 28 9 15 - - -
26/12:30pm - - - - - NW 20 35 11 19 - - -
26/12:00pm - - - - - NW 17 32 9 17 - - -
26/11:30am - - - - - NNW 22 32 12 17 - - -
26/11:00am - - - - - NNW 19 32 10 17 - - -
26/10:30am - - - - - NNW 22 33 12 18 - - -
26/10:00am - - - - - NNW 17 30 9 16 - - -
26/09:30am - - - - - NNW 20 30 11 16 - - -
26/09:00am - - - - - NNW 15 26 8 14 - - -
26/08:30am - - - - - NNW 17 26 9 14 - - -
26/08:00am - - - - - NNW 13 30 7 16 - - -
26/07:30am - - - - - NNW 11 19 6 10 - - -
26/07:00am - - - - - N 11 13 6 7 - - -
26/06:30am - - - - - NNW 9 15 5 8 - - -
26/06:00am - - - - - N 7 11 4 6 - - -
26/05:30am - - - - - NNE 7 11 4 6 - - -
26/05:00am - - - - - N 7 11 4 6 - - -
26/04:30am - - - - - N 9 13 5 7 - - -
26/04:00am - - - - - N 9 13 5 7 - - -
26/03:30am - - - - - N 11 15 6 8 - - -

Other formats

Comma delimited format used in spreadsheet applications
http://www.bom.gov.au/fwo/IDN60801/IDN60801.95752.axf

JavaScript Object Notation format (JSON) in row-major order
http://www.bom.gov.au/fwo/IDN60801/IDN60801.95752.json

Data quality

Most of these data are generated automatically and are frequently updated. Quality checks on data are not normally performed. It is possible for incorrect values to appear. Refer to information at About Latest Weather Observations and please check the disclaimer before using these data.